sensor_id;sensor_type;location;lat;lon;timestamp;P1;durP1;ratioP1;P2;durP2;ratioP2
66860;SDS011;53770;42.334;23.550;2022-08-01T00:01:07;14.80;;;7.43;;
66860;SDS011;53770;42.334;23.550;2022-08-01T00:03:34;8.63;;;6.45;;
66860;SDS011;53770;42.334;23.550;2022-08-01T00:06:01;8.55;;;6.22;;
66860;SDS011;53770;42.334;23.550;2022-08-01T00:08:27;7.43;;;6.27;;
66860;SDS011;53770;42.334;23.550;2022-08-01T00:10:54;7.90;;;5.72;;
66860;SDS011;53770;42.334;23.550;2022-08-01T00:13:22;8.70;;;6.65;;
66860;SDS011;53770;42.334;23.550;2022-08-01T00:15:49;8.30;;;6.40;;
66860;SDS011;53770;42.334;23.550;2022-08-01T00:18:16;8.70;;;6.22;;
66860;SDS011;53770;42.334;23.550;2022-08-01T00:20:43;7.70;;;6.20;;
66860;SDS011;53770;42.334;23.550;2022-08-01T00:23:10;9.95;;;6.18;;
66860;SDS011;53770;42.334;23.550;2022-08-01T00:25:36;8.60;;;6.65;;
66860;SDS011;53770;42.334;23.550;2022-08-01T00:28:03;9.48;;;6.30;;
66860;SDS011;53770;42.334;23.550;2022-08-01T00:30:35;7.63;;;5.88;;
66860;SDS011;53770;42.334;23.550;2022-08-01T00:33:02;7.10;;;5.80;;
66860;SDS011;53770;42.334;23.550;2022-08-01T00:35:29;8.45;;;6.10;;
66860;SDS011;53770;42.334;23.550;2022-08-01T00:37:55;10.23;;;6.32;;
66860;SDS011;53770;42.334;23.550;2022-08-01T00:40:22;8.70;;;6.20;;
66860;SDS011;53770;42.334;23.550;2022-08-01T00:42:49;7.78;;;6.25;;
66860;SDS011;53770;42.334;23.550;2022-08-01T00:45:16;8.03;;;6.47;;
66860;SDS011;53770;42.334;23.550;2022-08-01T00:47:44;7.93;;;5.57;;
66860;SDS011;53770;42.334;23.550;2022-08-01T00:50:11;7.28;;;5.72;;
66860;SDS011;53770;42.334;23.550;2022-08-01T00:52:39;7.20;;;5.28;;
66860;SDS011;53770;42.334;23.550;2022-08-01T00:55:06;8.82;;;5.72;;
66860;SDS011;53770;42.334;23.550;2022-08-01T00:57:34;8.33;;;5.97;;
66860;SDS011;53770;42.334;23.550;2022-08-01T01:00:01;8.93;;;5.88;;
66860;SDS011;53770;42.334;23.550;2022-08-01T01:02:29;8.40;;;5.88;;
66860;SDS011;53770;42.334;23.550;2022-08-01T01:04:57;10.75;;;5.85;;
66860;SDS011;53770;42.334;23.550;2022-08-01T01:07:27;7.03;;;5.00;;
66860;SDS011;53770;42.334;23.550;2022-08-01T01:10:15;7.60;;;5.47;;
66860;SDS011;53770;42.334;23.550;2022-08-01T01:12:48;6.82;;;5.03;;
66860;SDS011;53770;42.334;23.550;2022-08-01T01:15:22;6.60;;;4.65;;
66860;SDS011;53770;42.334;23.550;2022-08-01T01:17:54;10.35;;;5.72;;
66860;SDS011;53770;42.334;23.550;2022-08-01T01:20:26;6.50;;;4.82;;
66860;SDS011;53770;42.334;23.550;2022-08-01T01:23:20;9.83;;;5.77;;
66860;SDS011;53770;42.334;23.550;2022-08-01T01:26:07;7.80;;;5.40;;
66860;SDS011;53770;42.334;23.550;2022-08-01T01:28:53;7.07;;;5.25;;
66860;SDS011;53770;42.334;23.550;2022-08-01T01:31:31;7.18;;;5.10;;
66860;SDS011;53770;42.334;23.550;2022-08-01T01:34:02;7.00;;;5.43;;
66860;SDS011;53770;42.334;23.550;2022-08-01T01:36:30;8.43;;;5.47;;
66860;SDS011;53770;42.334;23.550;2022-08-01T01:38:58;7.05;;;5.63;;
66860;SDS011;53770;42.334;23.550;2022-08-01T01:41:26;9.57;;;6.10;;
66860;SDS011;53770;42.334;23.550;2022-08-01T01:43:55;8.20;;;5.60;;
66860;SDS011;53770;42.334;23.550;2022-08-01T01:46:24;7.00;;;5.30;;
66860;SDS011;53770;42.334;23.550;2022-08-01T01:48:53;7.67;;;5.77;;
66860;SDS011;53770;42.334;23.550;2022-08-01T01:51:22;7.88;;;5.40;;
66860;SDS011;53770;42.334;23.550;2022-08-01T01:53:51;7.93;;;5.45;;
66860;SDS011;53770;42.334;23.550;2022-08-01T01:56:19;8.35;;;4.80;;
66860;SDS011;53770;42.334;23.550;2022-08-01T01:58:48;7.18;;;5.03;;
66860;SDS011;53770;42.334;23.550;2022-08-01T02:01:17;7.00;;;5.10;;
66860;SDS011;53770;42.334;23.550;2022-08-01T02:03:45;6.38;;;4.55;;
66860;SDS011;53770;42.334;23.550;2022-08-01T02:06:13;10.40;;;5.30;;
66860;SDS011;53770;42.334;23.550;2022-08-01T02:08:42;6.45;;;4.97;;
66860;SDS011;53770;42.334;23.550;2022-08-01T02:11:09;7.60;;;5.28;;
66860;SDS011;53770;42.334;23.550;2022-08-01T02:13:46;6.57;;;4.70;;
66860;SDS011;53770;42.334;23.550;2022-08-01T02:16:19;6.63;;;4.82;;
66860;SDS011;53770;42.334;23.550;2022-08-01T02:18:49;7.70;;;5.40;;
66860;SDS011;53770;42.334;23.550;2022-08-01T02:21:16;8.45;;;5.22;;
66860;SDS011;53770;42.334;23.550;2022-08-01T02:23:51;10.50;;;4.97;;
66860;SDS011;53770;42.334;23.550;2022-08-01T02:26:19;7.07;;;4.30;;
66860;SDS011;53770;42.334;23.550;2022-08-01T02:28:49;8.00;;;5.00;;
66860;SDS011;53770;42.334;23.550;2022-08-01T02:31:23;8.52;;;4.80;;
66860;SDS011;53770;42.334;23.550;2022-08-01T02:33:53;6.70;;;4.55;;
66860;SDS011;53770;42.334;23.550;2022-08-01T02:36:23;6.13;;;4.70;;
66860;SDS011;53770;42.334;23.550;2022-08-01T02:38:52;6.50;;;4.47;;
66860;SDS011;53770;42.334;23.550;2022-08-01T02:41:22;7.47;;;4.40;;
66860;SDS011;53770;42.334;23.550;2022-08-01T02:43:52;8.73;;;4.68;;
66860;SDS011;53770;42.334;23.550;2022-08-01T02:46:25;7.82;;;4.40;;
66860;SDS011;53770;42.334;23.550;2022-08-01T02:48:55;5.82;;;4.05;;
66860;SDS011;53770;42.334;23.550;2022-08-01T02:51:25;5.77;;;3.93;;
66860;SDS011;53770;42.334;23.550;2022-08-01T02:53:53;5.97;;;3.95;;
66860;SDS011;53770;42.334;23.550;2022-08-01T02:56:21;7.10;;;4.57;;
66860;SDS011;53770;42.334;23.550;2022-08-01T02:58:49;9.43;;;3.90;;
66860;SDS011;53770;42.334;23.550;2022-08-01T03:01:18;5.15;;;3.80;;
66860;SDS011;53770;42.334;23.550;2022-08-01T03:03:48;6.57;;;3.73;;
66860;SDS011;53770;42.334;23.550;2022-08-01T03:06:15;10.60;;;3.60;;
66860;SDS011;53770;42.334;23.550;2022-08-01T03:08:43;6.88;;;4.28;;
66860;SDS011;53770;42.334;23.550;2022-08-01T03:11:11;5.85;;;4.20;;
66860;SDS011;53770;42.334;23.550;2022-08-01T03:13:39;6.25;;;3.88;;
66860;SDS011;53770;42.334;23.550;2022-08-01T03:16:07;7.83;;;3.97;;
66860;SDS011;53770;42.334;23.550;2022-08-01T03:18:35;6.13;;;3.83;;
66860;SDS011;53770;42.334;23.550;2022-08-01T03:21:05;6.65;;;3.63;;
66860;SDS011;53770;42.334;23.550;2022-08-01T03:23:35;6.40;;;3.65;;
66860;SDS011;53770;42.334;23.550;2022-08-01T03:26:03;5.97;;;3.85;;
66860;SDS011;53770;42.334;23.550;2022-08-01T03:28:32;8.17;;;3.50;;
66860;SDS011;53770;42.334;23.550;2022-08-01T03:30:58;4.97;;;3.20;;
66860;SDS011;53770;42.334;23.550;2022-08-01T03:33:26;5.07;;;3.30;;
66860;SDS011;53770;42.334;23.550;2022-08-01T03:35:54;5.20;;;3.15;;
66860;SDS011;53770;42.334;23.550;2022-08-01T03:38:25;5.65;;;3.50;;
66860;SDS011;53770;42.334;23.550;2022-08-01T03:40:53;6.73;;;2.73;;
66860;SDS011;53770;42.334;23.550;2022-08-01T03:43:26;6.82;;;3.30;;
66860;SDS011;53770;42.334;23.550;2022-08-01T03:45:58;5.97;;;3.10;;
66860;SDS011;53770;42.334;23.550;2022-08-01T03:48:30;6.82;;;3.00;;
66860;SDS011;53770;42.334;23.550;2022-08-01T03:51:01;5.35;;;3.47;;
66860;SDS011;53770;42.334;23.550;2022-08-01T03:53:31;5.13;;;2.87;;
66860;SDS011;53770;42.334;23.550;2022-08-01T03:55:59;5.78;;;3.10;;
66860;SDS011;53770;42.334;23.550;2022-08-01T03:58:28;5.80;;;2.70;;
66860;SDS011;53770;42.334;23.550;2022-08-01T04:00:55;6.30;;;2.78;;
66860;SDS011;53770;42.334;23.550;2022-08-01T04:03:23;7.25;;;3.53;;
66860;SDS011;53770;42.334;23.550;2022-08-01T04:05:50;4.73;;;2.93;;
66860;SDS011;53770;42.334;23.550;2022-08-01T04:08:17;4.53;;;2.90;;
66860;SDS011;53770;42.334;23.550;2022-08-01T04:10:45;5.43;;;3.33;;
66860;SDS011;53770;42.334;23.550;2022-08-01T04:13:12;4.50;;;2.88;;
66860;SDS011;53770;42.334;23.550;2022-08-01T04:15:39;7.13;;;3.15;;
66860;SDS011;53770;42.334;23.550;2022-08-01T04:18:05;5.47;;;2.93;;
66860;SDS011;53770;42.334;23.550;2022-08-01T04:20:32;5.15;;;2.90;;
66860;SDS011;53770;42.334;23.550;2022-08-01T04:22:59;4.35;;;3.05;;
66860;SDS011;53770;42.334;23.550;2022-08-01T04:25:28;5.75;;;3.00;;
66860;SDS011;53770;42.334;23.550;2022-08-01T04:28:01;4.47;;;2.55;;
66860;SDS011;53770;42.334;23.550;2022-08-01T04:30:31;4.50;;;2.63;;
66860;SDS011;53770;42.334;23.550;2022-08-01T04:33:00;5.68;;;2.60;;
66860;SDS011;53770;42.334;23.550;2022-08-01T04:35:30;4.70;;;2.90;;
66860;SDS011;53770;42.334;23.550;2022-08-01T04:37:59;4.18;;;2.85;;
66860;SDS011;53770;42.334;23.550;2022-08-01T04:40:28;5.65;;;2.60;;
66860;SDS011;53770;42.334;23.550;2022-08-01T04:42:55;4.90;;;2.43;;
66860;SDS011;53770;42.334;23.550;2022-08-01T04:45:24;3.88;;;2.50;;
66860;SDS011;53770;42.334;23.550;2022-08-01T04:47:51;4.80;;;2.65;;
66860;SDS011;53770;42.334;23.550;2022-08-01T04:50:18;5.25;;;2.67;;
66860;SDS011;53770;42.334;23.550;2022-08-01T04:52:47;4.32;;;2.70;;
66860;SDS011;53770;42.334;23.550;2022-08-01T04:55:14;5.20;;;2.53;;
66860;SDS011;53770;42.334;23.550;2022-08-01T04:57:42;4.47;;;2.20;;
66860;SDS011;53770;42.334;23.550;2022-08-01T05:00:11;6.00;;;2.80;;
66860;SDS011;53770;42.334;23.550;2022-08-01T05:02:40;7.78;;;2.40;;
66860;SDS011;53770;42.334;23.550;2022-08-01T05:05:07;4.32;;;2.63;;
66860;SDS011;53770;42.334;23.550;2022-08-01T05:07:35;4.47;;;2.30;;
66860;SDS011;53770;42.334;23.550;2022-08-01T05:10:02;4.72;;;2.55;;
66860;SDS011;53770;42.334;23.550;2022-08-01T05:12:29;4.82;;;2.40;;
66860;SDS011;53770;42.334;23.550;2022-08-01T05:14:57;4.00;;;2.47;;
66860;SDS011;53770;42.334;23.550;2022-08-01T05:17:24;3.65;;;2.20;;
66860;SDS011;53770;42.334;23.550;2022-08-01T05:19:52;4.43;;;2.30;;
66860;SDS011;53770;42.334;23.550;2022-08-01T05:22:19;5.43;;;2.40;;
66860;SDS011;53770;42.334;23.550;2022-08-01T05:24:47;5.18;;;2.38;;
66860;SDS011;53770;42.334;23.550;2022-08-01T05:27:14;4.18;;;2.30;;
66860;SDS011;53770;42.334;23.550;2022-08-01T05:29:40;4.55;;;2.20;;
66860;SDS011;53770;42.334;23.550;2022-08-01T05:32:07;5.20;;;2.77;;
66860;SDS011;53770;42.334;23.550;2022-08-01T05:34:34;5.07;;;2.70;;
66860;SDS011;53770;42.334;23.550;2022-08-01T05:37:03;7.80;;;2.90;;
66860;SDS011;53770;42.334;23.550;2022-08-01T05:39:29;4.90;;;2.10;;
66860;SDS011;53770;42.334;23.550;2022-08-01T05:41:56;5.00;;;2.55;;
66860;SDS011;53770;42.334;23.550;2022-08-01T05:44:23;4.20;;;2.10;;
66860;SDS011;53770;42.334;23.550;2022-08-01T05:46:50;3.60;;;2.17;;
66860;SDS011;53770;42.334;23.550;2022-08-01T05:49:17;4.20;;;2.28;;
66860;SDS011;53770;42.334;23.550;2022-08-01T05:51:43;4.07;;;2.30;;
66860;SDS011;53770;42.334;23.550;2022-08-01T05:54:12;4.50;;;2.55;;
66860;SDS011;53770;42.334;23.550;2022-08-01T05:56:38;3.97;;;2.40;;
66860;SDS011;53770;42.334;23.550;2022-08-01T05:59:05;5.60;;;2.53;;
66860;SDS011;53770;42.334;23.550;2022-08-01T06:01:32;4.85;;;2.28;;
66860;SDS011;53770;42.334;23.550;2022-08-01T06:03:59;4.53;;;2.40;;
66860;SDS011;53770;42.334;23.550;2022-08-01T06:06:26;6.13;;;2.17;;
66860;SDS011;53770;42.334;23.550;2022-08-01T06:08:52;4.17;;;2.03;;
66860;SDS011;53770;42.334;23.550;2022-08-01T06:11:21;5.97;;;2.25;;
66860;SDS011;53770;42.334;23.550;2022-08-01T06:13:47;4.20;;;2.42;;
66860;SDS011;53770;42.334;23.550;2022-08-01T06:16:14;6.32;;;2.38;;
66860;SDS011;53770;42.334;23.550;2022-08-01T06:18:41;7.95;;;2.53;;
66860;SDS011;53770;42.334;23.550;2022-08-01T06:21:08;3.80;;;2.60;;
66860;SDS011;53770;42.334;23.550;2022-08-01T06:23:35;4.13;;;2.03;;
66860;SDS011;53770;42.334;23.550;2022-08-01T06:26:02;3.92;;;2.60;;
66860;SDS011;53770;42.334;23.550;2022-08-01T06:28:30;4.82;;;1.92;;
66860;SDS011;53770;42.334;23.550;2022-08-01T06:30:57;5.32;;;2.25;;
66860;SDS011;53770;42.334;23.550;2022-08-01T06:33:25;3.50;;;2.07;;
66860;SDS011;53770;42.334;23.550;2022-08-01T06:35:52;3.88;;;2.17;;
66860;SDS011;53770;42.334;23.550;2022-08-01T06:38:20;4.55;;;2.55;;
66860;SDS011;53770;42.334;23.550;2022-08-01T06:40:46;5.63;;;2.33;;
66860;SDS011;53770;42.334;23.550;2022-08-01T06:43:13;3.85;;;2.42;;
66860;SDS011;53770;42.334;23.550;2022-08-01T06:45:42;3.50;;;2.20;;
66860;SDS011;53770;42.334;23.550;2022-08-01T06:48:08;7.45;;;2.70;;
66860;SDS011;53770;42.334;23.550;2022-08-01T06:50:35;3.92;;;2.50;;
66860;SDS011;53770;42.334;23.550;2022-08-01T06:53:02;4.82;;;2.25;;
66860;SDS011;53770;42.334;23.550;2022-08-01T06:55:29;4.85;;;2.47;;
66860;SDS011;53770;42.334;23.550;2022-08-01T06:57:56;5.20;;;2.50;;
66860;SDS011;53770;42.334;23.550;2022-08-01T07:00:23;7.10;;;2.63;;
66860;SDS011;53770;42.334;23.550;2022-08-01T07:02:52;7.47;;;2.47;;
66860;SDS011;53770;42.334;23.550;2022-08-01T07:05:21;4.32;;;2.28;;
66860;SDS011;53770;42.334;23.550;2022-08-01T07:07:48;4.05;;;2.65;;
66860;SDS011;53770;42.334;23.550;2022-08-01T07:10:15;6.40;;;2.63;;
66860;SDS011;53770;42.334;23.550;2022-08-01T07:12:42;2.85;;;1.80;;
66860;SDS011;53770;42.334;23.550;2022-08-01T07:15:10;4.55;;;2.53;;
66860;SDS011;53770;42.334;23.550;2022-08-01T07:17:37;5.25;;;2.50;;
66860;SDS011;53770;42.334;23.550;2022-08-01T07:20:07;4.10;;;2.42;;
66860;SDS011;53770;42.334;23.550;2022-08-01T07:22:35;3.73;;;2.47;;
66860;SDS011;53770;42.334;23.550;2022-08-01T07:25:03;4.90;;;2.70;;
66860;SDS011;53770;42.334;23.550;2022-08-01T07:27:30;3.60;;;2.40;;
66860;SDS011;53770;42.334;23.550;2022-08-01T07:29:58;4.90;;;2.67;;
66860;SDS011;53770;42.334;23.550;2022-08-01T07:32:25;3.85;;;2.50;;
66860;SDS011;53770;42.334;23.550;2022-08-01T07:34:54;4.60;;;2.77;;
66860;SDS011;53770;42.334;23.550;2022-08-01T07:37:22;4.68;;;2.20;;
66860;SDS011;53770;42.334;23.550;2022-08-01T07:39:49;4.40;;;2.50;;
66860;SDS011;53770;42.334;23.550;2022-08-01T07:42:16;4.18;;;2.53;;
66860;SDS011;53770;42.334;23.550;2022-08-01T07:44:43;5.50;;;2.40;;
66860;SDS011;53770;42.334;23.550;2022-08-01T07:47:09;3.97;;;2.70;;
66860;SDS011;53770;42.334;23.550;2022-08-01T07:49:36;4.90;;;2.70;;
66860;SDS011;53770;42.334;23.550;2022-08-01T07:52:04;6.03;;;2.80;;
66860;SDS011;53770;42.334;23.550;2022-08-01T07:54:33;3.50;;;2.08;;
66860;SDS011;53770;42.334;23.550;2022-08-01T07:57:00;6.53;;;2.70;;
66860;SDS011;53770;42.334;23.550;2022-08-01T07:59:27;4.90;;;2.40;;
66860;SDS011;53770;42.334;23.550;2022-08-01T08:01:54;4.30;;;2.47;;
66860;SDS011;53770;42.334;23.550;2022-08-01T08:04:20;3.88;;;2.53;;
66860;SDS011;53770;42.334;23.550;2022-08-01T08:06:47;7.55;;;2.25;;
66860;SDS011;53770;42.334;23.550;2022-08-01T08:09:14;4.28;;;2.20;;
66860;SDS011;53770;42.334;23.550;2022-08-01T08:11:43;3.77;;;2.27;;
66860;SDS011;53770;42.334;23.550;2022-08-01T08:14:10;5.43;;;2.30;;
66860;SDS011;53770;42.334;23.550;2022-08-01T08:16:37;3.70;;;2.20;;
66860;SDS011;53770;42.334;23.550;2022-08-01T08:19:04;3.83;;;2.33;;
66860;SDS011;53770;42.334;23.550;2022-08-01T08:21:31;5.22;;;2.42;;
66860;SDS011;53770;42.334;23.550;2022-08-01T08:23:57;5.33;;;2.53;;
66860;SDS011;53770;42.334;23.550;2022-08-01T08:26:43;3.85;;;2.25;;
66860;SDS011;53770;42.334;23.550;2022-08-01T08:29:09;3.85;;;2.50;;
66860;SDS011;53770;42.334;23.550;2022-08-01T08:31:36;4.00;;;2.45;;
66860;SDS011;53770;42.334;23.550;2022-08-01T08:34:03;3.83;;;2.70;;
66860;SDS011;53770;42.334;23.550;2022-08-01T08:36:30;6.30;;;2.50;;
66860;SDS011;53770;42.334;23.550;2022-08-01T08:38:57;5.68;;;2.42;;
66860;SDS011;53770;42.334;23.550;2022-08-01T08:41:25;5.65;;;2.53;;
66860;SDS011;53770;42.334;23.550;2022-08-01T08:43:53;4.03;;;2.40;;
66860;SDS011;53770;42.334;23.550;2022-08-01T08:46:21;4.15;;;2.30;;
66860;SDS011;53770;42.334;23.550;2022-08-01T08:48:51;5.23;;;2.47;;
66860;SDS011;53770;42.334;23.550;2022-08-01T08:51:18;4.10;;;2.50;;
66860;SDS011;53770;42.334;23.550;2022-08-01T08:53:46;4.13;;;2.30;;
66860;SDS011;53770;42.334;23.550;2022-08-01T08:56:13;3.70;;;2.60;;
66860;SDS011;53770;42.334;23.550;2022-08-01T08:58:41;3.85;;;2.15;;
66860;SDS011;53770;42.334;23.550;2022-08-01T09:01:11;5.00;;;2.80;;
66860;SDS011;53770;42.334;23.550;2022-08-01T09:03:38;4.47;;;2.40;;
66860;SDS011;53770;42.334;23.550;2022-08-01T09:06:05;7.47;;;2.95;;
66860;SDS011;53770;42.334;23.550;2022-08-01T09:08:33;3.70;;;2.33;;
66860;SDS011;53770;42.334;23.550;2022-08-01T09:10:59;5.90;;;2.92;;
66860;SDS011;53770;42.334;23.550;2022-08-01T09:13:26;5.13;;;3.23;;
66860;SDS011;53770;42.334;23.550;2022-08-01T09:15:53;4.55;;;3.22;;
66860;SDS011;53770;42.334;23.550;2022-08-01T09:18:32;4.18;;;2.88;;
66860;SDS011;53770;42.334;23.550;2022-08-01T09:21:10;5.35;;;3.22;;
66860;SDS011;53770;42.334;23.550;2022-08-01T09:23:40;5.93;;;2.70;;
66860;SDS011;53770;42.334;23.550;2022-08-01T09:26:09;3.70;;;2.97;;
66860;SDS011;53770;42.334;23.550;2022-08-01T09:28:37;4.72;;;3.00;;
66860;SDS011;53770;42.334;23.550;2022-08-01T09:31:08;4.78;;;3.30;;
66860;SDS011;53770;42.334;23.550;2022-08-01T09:33:53;5.60;;;2.90;;
66860;SDS011;53770;42.334;23.550;2022-08-01T09:36:21;3.75;;;2.95;;
66860;SDS011;53770;42.334;23.550;2022-08-01T09:38:49;5.03;;;2.97;;
66860;SDS011;53770;42.334;23.550;2022-08-01T09:41:17;4.60;;;3.22;;
66860;SDS011;53770;42.334;23.550;2022-08-01T09:43:55;4.78;;;3.80;;
66860;SDS011;53770;42.334;23.550;2022-08-01T09:46:22;5.88;;;3.63;;
66860;SDS011;53770;42.334;23.550;2022-08-01T09:48:56;4.60;;;3.55;;
66860;SDS011;53770;42.334;23.550;2022-08-01T09:51:28;4.20;;;3.63;;
66860;SDS011;53770;42.334;23.550;2022-08-01T09:53:56;5.63;;;4.18;;
66860;SDS011;53770;42.334;23.550;2022-08-01T09:56:24;4.93;;;4.43;;
66860;SDS011;53770;42.334;23.550;2022-08-01T09:58:55;5.72;;;4.15;;
66860;SDS011;53770;42.334;23.550;2022-08-01T10:01:22;7.50;;;4.30;;
66860;SDS011;53770;42.334;23.550;2022-08-01T10:04:07;5.67;;;3.80;;
66860;SDS011;53770;42.334;23.550;2022-08-01T10:06:35;5.75;;;3.85;;
66860;SDS011;53770;42.334;23.550;2022-08-01T10:09:02;6.63;;;5.05;;
66860;SDS011;53770;42.334;23.550;2022-08-01T10:11:30;5.88;;;4.20;;
66860;SDS011;53770;42.334;23.550;2022-08-01T10:13:59;6.50;;;4.80;;
66860;SDS011;53770;42.334;23.550;2022-08-01T10:16:27;4.60;;;4.20;;
66860;SDS011;53770;42.334;23.550;2022-08-01T10:18:54;6.25;;;4.10;;
66860;SDS011;53770;42.334;23.550;2022-08-01T10:21:24;5.25;;;4.60;;
66860;SDS011;53770;42.334;23.550;2022-08-01T10:23:54;5.03;;;4.53;;
66860;SDS011;53770;42.334;23.550;2022-08-01T10:26:22;4.35;;;3.10;;
66860;SDS011;53770;42.334;23.550;2022-08-01T10:28:52;4.63;;;2.77;;
66860;SDS011;53770;42.334;23.550;2022-08-01T10:31:20;4.53;;;3.92;;
66860;SDS011;53770;42.334;23.550;2022-08-01T10:33:47;5.18;;;4.68;;
66860;SDS011;53770;42.334;23.550;2022-08-01T10:36:16;4.75;;;3.75;;
66860;SDS011;53770;42.334;23.550;2022-08-01T10:38:46;6.63;;;4.57;;
66860;SDS011;53770;42.334;23.550;2022-08-01T10:41:13;3.37;;;3.00;;
66860;SDS011;53770;42.334;23.550;2022-08-01T10:43:41;6.07;;;3.92;;
66860;SDS011;53770;42.334;23.550;2022-08-01T10:46:08;4.65;;;3.75;;
66860;SDS011;53770;42.334;23.550;2022-08-01T10:48:39;4.93;;;3.67;;
66860;SDS011;53770;42.334;23.550;2022-08-01T10:51:11;4.95;;;3.15;;
66860;SDS011;53770;42.334;23.550;2022-08-01T10:53:46;5.53;;;4.90;;
66860;SDS011;53770;42.334;23.550;2022-08-01T10:56:16;3.72;;;2.83;;
66860;SDS011;53770;42.334;23.550;2022-08-01T10:58:43;6.05;;;5.03;;
66860;SDS011;53770;42.334;23.550;2022-08-01T11:01:15;5.90;;;5.40;;
66860;SDS011;53770;42.334;23.550;2022-08-01T11:03:44;5.90;;;5.38;;
66860;SDS011;53770;42.334;23.550;2022-08-01T11:06:23;5.70;;;5.20;;
66860;SDS011;53770;42.334;23.550;2022-08-01T11:08:54;7.90;;;5.60;;
66860;SDS011;53770;42.334;23.550;2022-08-01T11:11:22;6.13;;;5.63;;
66860;SDS011;53770;42.334;23.550;2022-08-01T11:14:01;6.40;;;5.68;;
66860;SDS011;53770;42.334;23.550;2022-08-01T11:16:32;6.35;;;5.78;;
66860;SDS011;53770;42.334;23.550;2022-08-01T11:19:00;4.20;;;3.80;;
66860;SDS011;53770;42.334;23.550;2022-08-01T11:27:24;6.43;;;5.70;;
66860;SDS011;53770;42.334;23.550;2022-08-01T11:32:51;6.87;;;6.10;;
66860;SDS011;53770;42.334;23.550;2022-08-01T11:35:20;7.22;;;6.63;;
66860;SDS011;53770;42.334;23.550;2022-08-01T11:37:48;7.10;;;6.60;;
66860;SDS011;53770;42.334;23.550;2022-08-01T11:40:19;7.00;;;6.40;;
66860;SDS011;53770;42.334;23.550;2022-08-01T11:42:48;8.40;;;7.60;;
66860;SDS011;53770;42.334;23.550;2022-08-01T11:45:15;7.80;;;7.17;;
66860;SDS011;53770;42.334;23.550;2022-08-01T11:47:43;8.65;;;7.65;;
66860;SDS011;53770;42.334;23.550;2022-08-01T11:50:30;6.18;;;3.75;;
66860;SDS011;53770;42.334;23.550;2022-08-01T11:53:01;7.50;;;6.45;;
66860;SDS011;53770;42.334;23.550;2022-08-01T11:55:31;6.95;;;6.38;;
66860;SDS011;53770;42.334;23.550;2022-08-01T11:58:00;7.37;;;5.83;;
66860;SDS011;53770;42.334;23.550;2022-08-01T12:00:27;3.75;;;3.20;;
66860;SDS011;53770;42.334;23.550;2022-08-01T12:02:59;7.55;;;6.97;;
66860;SDS011;53770;42.334;23.550;2022-08-01T12:05:28;7.82;;;6.90;;
66860;SDS011;53770;42.334;23.550;2022-08-01T12:07:58;8.23;;;7.40;;
66860;SDS011;53770;42.334;23.550;2022-08-01T12:10:26;8.30;;;7.70;;
66860;SDS011;53770;42.334;23.550;2022-08-01T12:13:00;4.95;;;3.58;;
66860;SDS011;53770;42.334;23.550;2022-08-01T12:15:29;7.30;;;6.75;;
66860;SDS011;53770;42.334;23.550;2022-08-01T12:17:58;8.55;;;7.75;;
66860;SDS011;53770;42.334;23.550;2022-08-01T12:20:27;7.75;;;7.18;;
66860;SDS011;53770;42.334;23.550;2022-08-01T12:22:56;7.67;;;6.97;;
66860;SDS011;53770;42.334;23.550;2022-08-01T12:25:24;7.82;;;7.13;;
66860;SDS011;53770;42.334;23.550;2022-08-01T12:27:50;5.13;;;4.13;;
66860;SDS011;53770;42.334;23.550;2022-08-01T12:30:19;7.85;;;7.15;;
66860;SDS011;53770;42.334;23.550;2022-08-01T12:32:49;8.38;;;7.75;;
66860;SDS011;53770;42.334;23.550;2022-08-01T12:35:17;8.63;;;7.83;;
66860;SDS011;53770;42.334;23.550;2022-08-01T12:37:45;9.30;;;8.50;;
66860;SDS011;53770;42.334;23.550;2022-08-01T12:40:14;9.65;;;8.95;;
66860;SDS011;53770;42.334;23.550;2022-08-01T12:42:44;9.25;;;8.55;;
66860;SDS011;53770;42.334;23.550;2022-08-01T12:45:12;10.38;;;9.57;;
66860;SDS011;53770;42.334;23.550;2022-08-01T12:47:41;8.60;;;7.90;;
66860;SDS011;53770;42.334;23.550;2022-08-01T12:50:10;5.95;;;5.50;;
66860;SDS011;53770;42.334;23.550;2022-08-01T12:52:38;4.50;;;3.60;;
66860;SDS011;53770;42.334;23.550;2022-08-01T12:55:10;4.82;;;4.07;;
66860;SDS011;53770;42.334;23.550;2022-08-01T12:57:38;8.50;;;7.82;;
66860;SDS011;53770;42.334;23.550;2022-08-01T13:00:11;6.10;;;5.60;;
66860;SDS011;53770;42.334;23.550;2022-08-01T13:02:41;7.72;;;7.03;;
66860;SDS011;53770;42.334;23.550;2022-08-01T13:05:09;9.48;;;8.77;;
66860;SDS011;53770;42.334;23.550;2022-08-01T13:07:38;9.10;;;8.30;;
66860;SDS011;53770;42.334;23.550;2022-08-01T13:10:06;5.10;;;4.18;;
66860;SDS011;53770;42.334;23.550;2022-08-01T13:12:34;5.30;;;4.33;;
66860;SDS011;53770;42.334;23.550;2022-08-01T13:17:57;9.05;;;8.25;;
66860;SDS011;53770;42.334;23.550;2022-08-01T13:20:27;8.95;;;8.20;;
66860;SDS011;53770;42.334;23.550;2022-08-01T13:23:09;9.77;;;8.82;;
66860;SDS011;53770;42.334;23.550;2022-08-01T13:25:46;10.10;;;9.40;;
66860;SDS011;53770;42.334;23.550;2022-08-01T13:28:18;9.27;;;8.65;;
66860;SDS011;53770;42.334;23.550;2022-08-01T13:30:53;10.20;;;9.40;;
66860;SDS011;53770;42.334;23.550;2022-08-01T13:33:23;5.00;;;4.50;;
66860;SDS011;53770;42.334;23.550;2022-08-01T13:35:51;6.85;;;6.30;;
66860;SDS011;53770;42.334;23.550;2022-08-01T13:38:18;9.90;;;9.20;;
66860;SDS011;53770;42.334;23.550;2022-08-01T13:41:05;9.75;;;8.85;;
66860;SDS011;53770;42.334;23.550;2022-08-01T13:43:33;9.50;;;8.75;;
66860;SDS011;53770;42.334;23.550;2022-08-01T13:46:01;10.20;;;9.48;;
66860;SDS011;53770;42.334;23.550;2022-08-01T13:48:30;9.20;;;8.60;;
66860;SDS011;53770;42.334;23.550;2022-08-01T13:50:58;10.23;;;9.50;;
66860;SDS011;53770;42.334;23.550;2022-08-01T13:53:26;9.65;;;8.95;;
66860;SDS011;53770;42.334;23.550;2022-08-01T13:55:53;10.43;;;9.65;;
66860;SDS011;53770;42.334;23.550;2022-08-01T13:58:20;4.68;;;4.28;;
66860;SDS011;53770;42.334;23.550;2022-08-01T14:00:47;8.23;;;7.55;;
66860;SDS011;53770;42.334;23.550;2022-08-01T14:03:14;8.93;;;8.23;;
66860;SDS011;53770;42.334;23.550;2022-08-01T14:05:43;8.50;;;7.80;;
66860;SDS011;53770;42.334;23.550;2022-08-01T14:08:10;9.98;;;9.27;;
66860;SDS011;53770;42.334;23.550;2022-08-01T14:10:37;5.20;;;4.80;;
66860;SDS011;53770;42.334;23.550;2022-08-01T14:13:04;4.20;;;3.33;;
66860;SDS011;53770;42.334;23.550;2022-08-01T14:15:31;6.67;;;6.17;;
66860;SDS011;53770;42.334;23.550;2022-08-01T14:17:58;6.15;;;5.55;;
66860;SDS011;53770;42.334;23.550;2022-08-01T14:20:25;4.65;;;4.25;;
66860;SDS011;53770;42.334;23.550;2022-08-01T14:22:54;6.65;;;4.07;;
66860;SDS011;53770;42.334;23.550;2022-08-01T14:25:20;4.10;;;3.70;;
66860;SDS011;53770;42.334;23.550;2022-08-01T14:27:47;3.70;;;3.07;;
66860;SDS011;53770;42.334;23.550;2022-08-01T14:30:14;3.92;;;3.15;;
66860;SDS011;53770;42.334;23.550;2022-08-01T14:32:40;4.32;;;3.25;;
66860;SDS011;53770;42.334;23.550;2022-08-01T14:35:07;7.78;;;3.63;;
66860;SDS011;53770;42.334;23.550;2022-08-01T14:37:34;6.15;;;4.15;;
66860;SDS011;53770;42.334;23.550;2022-08-01T14:40:03;4.33;;;3.43;;
66860;SDS011;53770;42.334;23.550;2022-08-01T14:42:34;5.38;;;3.10;;
66860;SDS011;53770;42.334;23.550;2022-08-01T14:45:01;8.98;;;5.28;;
66860;SDS011;53770;42.334;23.550;2022-08-01T14:47:29;4.95;;;3.03;;
66860;SDS011;53770;42.334;23.550;2022-08-01T14:49:55;7.22;;;3.30;;
66860;SDS011;53770;42.334;23.550;2022-08-01T14:52:22;4.33;;;3.30;;
66860;SDS011;53770;42.334;23.550;2022-08-01T14:54:49;5.85;;;3.10;;